sensor_id;sensor_type;location;lat;lon;timestamp;pressure;altitude;pressure_sealevel;temperature;humidity
40998;BME280;26740;45.944;12.480;2022-07-29T00:02:14;100994.56;;;21.86;100.00
40998;BME280;26740;45.944;12.480;2022-07-29T00:04:39;100995.25;;;21.91;100.00
40998;BME280;26740;45.944;12.480;2022-07-29T00:07:05;100990.31;;;22.06;100.00
40998;BME280;26740;45.944;12.480;2022-07-29T00:09:31;100994.44;;;22.31;100.00
40998;BME280;26740;45.944;12.480;2022-07-29T00:12:00;100994.50;;;22.66;100.00
40998;BME280;26740;45.944;12.480;2022-07-29T00:14:27;100996.03;;;22.98;100.00
40998;BME280;26740;45.944;12.480;2022-07-29T00:16:52;100996.88;;;23.16;100.00
40998;BME280;26740;45.944;12.480;2022-07-29T00:19:18;100998.56;;;23.26;100.00
40998;BME280;26740;45.944;12.480;2022-07-29T00:21:44;101005.34;;;23.42;100.00
40998;BME280;26740;45.944;12.480;2022-07-29T00:24:09;101006.16;;;23.52;100.00
40998;BME280;26740;45.944;12.480;2022-07-29T00:26:35;101004.13;;;23.61;100.00
40998;BME280;26740;45.944;12.480;2022-07-29T00:29:03;101002.78;;;23.67;100.00
40998;BME280;26740;45.944;12.480;2022-07-29T00:31:29;101001.13;;;23.66;100.00
40998;BME280;26740;45.944;12.480;2022-07-29T00:33:56;100997.97;;;23.59;100.00
40998;BME280;26740;45.944;12.480;2022-07-29T00:36:22;100998.16;;;23.54;100.00
40998;BME280;26740;45.944;12.480;2022-07-29T00:38:49;100999.50;;;23.47;100.00
40998;BME280;26740;45.944;12.480;2022-07-29T00:41:15;101004.34;;;23.38;100.00
40998;BME280;26740;45.944;12.480;2022-07-29T00:43:42;101004.00;;;23.31;100.00
40998;BME280;26740;45.944;12.480;2022-07-29T00:46:08;101007.16;;;23.38;100.00
40998;BME280;26740;45.944;12.480;2022-07-29T00:48:34;101003.84;;;23.36;100.00
40998;BME280;26740;45.944;12.480;2022-07-29T00:51:01;101003.19;;;23.22;100.00
40998;BME280;26740;45.944;12.480;2022-07-29T00:53:27;101005.06;;;23.18;100.00
40998;BME280;26740;45.944;12.480;2022-07-29T00:55:54;101008.22;;;23.07;100.00
40998;BME280;26740;45.944;12.480;2022-07-29T00:58:21;101002.22;;;23.09;100.00
40998;BME280;26740;45.944;12.480;2022-07-29T01:00:46;101000.22;;;23.18;100.00
40998;BME280;26740;45.944;12.480;2022-07-29T01:03:12;101007.72;;;23.23;100.00
40998;BME280;26740;45.944;12.480;2022-07-29T01:05:39;101006.84;;;23.31;100.00
40998;BME280;26740;45.944;12.480;2022-07-29T01:08:06;101003.84;;;23.27;100.00
40998;BME280;26740;45.944;12.480;2022-07-29T01:10:32;101003.53;;;23.29;100.00
40998;BME280;26740;45.944;12.480;2022-07-29T01:13:01;101012.66;;;23.52;100.00
40998;BME280;26740;45.944;12.480;2022-07-29T01:15:27;101020.13;;;23.74;100.00
40998;BME280;26740;45.944;12.480;2022-07-29T01:18:07;101010.31;;;24.10;100.00
40998;BME280;26740;45.944;12.480;2022-07-29T01:26:40;101020.94;;;24.60;100.00
40998;BME280;26740;45.944;12.480;2022-07-29T01:29:34;101016.78;;;24.79;100.00
40998;BME280;26740;45.944;12.480;2022-07-29T01:32:10;101010.84;;;24.93;100.00
40998;BME280;26740;45.944;12.480;2022-07-29T01:34:53;100993.44;;;24.73;100.00
40998;BME280;26740;45.944;12.480;2022-07-29T01:37:28;100985.41;;;24.75;100.00
40998;BME280;26740;45.944;12.480;2022-07-29T01:39:57;100974.41;;;24.74;100.00
40998;BME280;26740;45.944;12.480;2022-07-29T01:42:43;100963.50;;;24.76;100.00
40998;BME280;26740;45.944;12.480;2022-07-29T01:45:38;100944.81;;;24.54;100.00
40998;BME280;26740;45.944;12.480;2022-07-29T01:51:03;100921.78;;;24.26;100.00
40998;BME280;26740;45.944;12.480;2022-07-29T01:56:26;100910.97;;;24.19;100.00
40998;BME280;26740;45.944;12.480;2022-07-29T01:58:57;100925.22;;;24.10;100.00
40998;BME280;26740;45.944;12.480;2022-07-29T02:01:24;100918.63;;;23.97;100.00
40998;BME280;26740;45.944;12.480;2022-07-29T02:03:53;100907.13;;;23.94;100.00
40998;BME280;26740;45.944;12.480;2022-07-29T02:06:21;100904.88;;;24.08;100.00
40998;BME280;26740;45.944;12.480;2022-07-29T02:08:49;100895.78;;;24.23;100.00
40998;BME280;26740;45.944;12.480;2022-07-29T02:11:17;100894.56;;;24.54;100.00
40998;BME280;26740;45.944;12.480;2022-07-29T02:13:44;100879.72;;;24.70;96.72
40998;BME280;26740;45.944;12.480;2022-07-29T02:16:10;100883.31;;;24.79;94.77
40998;BME280;26740;45.944;12.480;2022-07-29T02:18:40;100882.53;;;24.91;93.50
40998;BME280;26740;45.944;12.480;2022-07-29T02:21:09;100876.16;;;24.94;93.14
40998;BME280;26740;45.944;12.480;2022-07-29T02:23:37;100873.81;;;24.96;96.17
40998;BME280;26740;45.944;12.480;2022-07-29T02:26:05;100873.88;;;24.87;96.12
40998;BME280;26740;45.944;12.480;2022-07-29T02:28:33;100874.31;;;24.77;96.34
40998;BME280;26740;45.944;12.480;2022-07-29T02:31:01;100867.75;;;24.64;100.00
40998;BME280;26740;45.944;12.480;2022-07-29T02:33:29;100868.09;;;24.63;100.00
40998;BME280;26740;45.944;12.480;2022-07-29T02:35:56;100865.72;;;24.44;100.00
40998;BME280;26740;45.944;12.480;2022-07-29T02:38:25;100870.31;;;24.36;100.00
40998;BME280;26740;45.944;12.480;2022-07-29T02:41:13;100872.59;;;24.21;100.00
40998;BME280;26740;45.944;12.480;2022-07-29T02:43:41;100870.44;;;24.18;100.00
40998;BME280;26740;45.944;12.480;2022-07-29T02:46:13;100875.34;;;24.09;100.00
40998;BME280;26740;45.944;12.480;2022-07-29T02:51:43;100889.19;;;23.81;100.00
40998;BME280;26740;45.944;12.480;2022-07-29T02:54:14;100891.22;;;23.63;100.00
40998;BME280;26740;45.944;12.480;2022-07-29T02:56:44;100890.75;;;23.61;100.00
40998;BME280;26740;45.944;12.480;2022-07-29T02:59:13;100891.81;;;23.47;100.00
40998;BME280;26740;45.944;12.480;2022-07-29T03:01:41;100901.16;;;23.39;100.00
40998;BME280;26740;45.944;12.480;2022-07-29T03:04:09;100893.38;;;23.19;100.00
40998;BME280;26740;45.944;12.480;2022-07-29T03:06:37;100892.06;;;22.99;100.00
40998;BME280;26740;45.944;12.480;2022-07-29T03:09:06;100889.25;;;22.99;100.00
40998;BME280;26740;45.944;12.480;2022-07-29T03:11:32;100887.75;;;23.01;100.00
40998;BME280;26740;45.944;12.480;2022-07-29T03:14:00;100898.25;;;23.09;100.00
40998;BME280;26740;45.944;12.480;2022-07-29T03:16:26;100903.41;;;23.16;100.00
40998;BME280;26740;45.944;12.480;2022-07-29T03:18:53;100902.09;;;23.14;100.00
40998;BME280;26740;45.944;12.480;2022-07-29T03:21:19;100905.44;;;23.07;100.00
40998;BME280;26740;45.944;12.480;2022-07-29T03:23:45;100904.06;;;22.96;100.00
40998;BME280;26740;45.944;12.480;2022-07-29T03:26:12;100908.09;;;22.77;100.00
40998;BME280;26740;45.944;12.480;2022-07-29T03:28:38;100908.25;;;22.63;100.00
40998;BME280;26740;45.944;12.480;2022-07-29T03:31:03;100907.09;;;22.47;100.00
40998;BME280;26740;45.944;12.480;2022-07-29T03:33:29;100903.94;;;22.31;100.00
40998;BME280;26740;45.944;12.480;2022-07-29T03:35:56;100902.69;;;22.23;100.00
40998;BME280;26740;45.944;12.480;2022-07-29T03:38:25;100893.88;;;22.16;100.00
40998;BME280;26740;45.944;12.480;2022-07-29T03:41:03;100906.34;;;22.06;100.00
40998;BME280;26740;45.944;12.480;2022-07-29T03:43:34;100907.31;;;21.93;100.00
40998;BME280;26740;45.944;12.480;2022-07-29T03:46:01;100917.56;;;21.80;100.00
40998;BME280;26740;45.944;12.480;2022-07-29T03:48:30;100916.94;;;21.83;100.00
40998;BME280;26740;45.944;12.480;2022-07-29T03:50:58;100916.28;;;21.95;100.00
40998;BME280;26740;45.944;12.480;2022-07-29T03:53:24;100913.13;;;21.96;100.00
40998;BME280;26740;45.944;12.480;2022-07-29T03:55:53;100909.81;;;21.94;100.00
40998;BME280;26740;45.944;12.480;2022-07-29T03:58:20;100903.13;;;21.82;100.00
40998;BME280;26740;45.944;12.480;2022-07-29T04:00:47;100905.25;;;21.67;100.00
40998;BME280;26740;45.944;12.480;2022-07-29T04:03:13;100894.03;;;21.53;100.00
40998;BME280;26740;45.944;12.480;2022-07-29T04:05:39;100909.56;;;21.42;100.00
40998;BME280;26740;45.944;12.480;2022-07-29T04:08:05;100901.94;;;21.43;100.00
40998;BME280;26740;45.944;12.480;2022-07-29T04:10:31;100912.47;;;21.28;100.00
40998;BME280;26740;45.944;12.480;2022-07-29T04:12:57;100913.56;;;21.41;100.00
40998;BME280;26740;45.944;12.480;2022-07-29T04:15:23;100909.50;;;21.33;100.00
40998;BME280;26740;45.944;12.480;2022-07-29T04:17:48;100920.50;;;21.35;100.00
40998;BME280;26740;45.944;12.480;2022-07-29T04:20:14;100920.84;;;21.42;100.00
40998;BME280;26740;45.944;12.480;2022-07-29T04:22:40;100926.31;;;21.38;100.00
40998;BME280;26740;45.944;12.480;2022-07-29T04:25:07;100928.31;;;21.38;100.00
40998;BME280;26740;45.944;12.480;2022-07-29T04:27:33;100923.69;;;21.42;100.00
40998;BME280;26740;45.944;12.480;2022-07-29T04:29:58;100925.44;;;21.52;100.00
40998;BME280;26740;45.944;12.480;2022-07-29T04:32:25;100922.72;;;21.78;100.00
40998;BME280;26740;45.944;12.480;2022-07-29T04:34:51;100920.69;;;22.19;100.00
40998;BME280;26740;45.944;12.480;2022-07-29T04:37:16;100926.56;;;22.75;100.00
40998;BME280;26740;45.944;12.480;2022-07-29T04:39:42;100928.69;;;23.30;100.00
40998;BME280;26740;45.944;12.480;2022-07-29T04:42:07;100932.84;;;23.80;100.00
40998;BME280;26740;45.944;12.480;2022-07-29T04:44:33;100937.59;;;23.67;100.00
40998;BME280;26740;45.944;12.480;2022-07-29T04:46:59;100927.03;;;23.29;100.00
40998;BME280;26740;45.944;12.480;2022-07-29T04:49:25;100929.88;;;22.94;100.00
40998;BME280;26740;45.944;12.480;2022-07-29T04:51:50;100931.41;;;22.65;100.00
40998;BME280;26740;45.944;12.480;2022-07-29T04:54:16;100925.56;;;22.53;100.00
40998;BME280;26740;45.944;12.480;2022-07-29T04:56:42;100928.41;;;22.62;100.00
40998;BME280;26740;45.944;12.480;2022-07-29T04:59:07;100939.72;;;22.88;100.00
40998;BME280;26740;45.944;12.480;2022-07-29T05:01:34;100933.88;;;23.75;100.00
40998;BME280;26740;45.944;12.480;2022-07-29T05:03:59;100931.03;;;24.65;100.00
40998;BME280;26740;45.944;12.480;2022-07-29T05:06:25;100937.22;;;25.21;100.00
40998;BME280;26740;45.944;12.480;2022-07-29T05:08:50;100944.50;;;25.89;100.00
40998;BME280;26740;45.944;12.480;2022-07-29T05:11:16;100944.25;;;26.84;100.00
40998;BME280;26740;45.944;12.480;2022-07-29T05:13:41;100940.91;;;27.67;100.00
40998;BME280;26740;45.944;12.480;2022-07-29T05:16:08;100947.81;;;28.29;92.42
40998;BME280;26740;45.944;12.480;2022-07-29T05:18:34;100945.66;;;28.78;81.73
40998;BME280;26740;45.944;12.480;2022-07-29T05:20:59;100946.38;;;28.94;83.40
40998;BME280;26740;45.944;12.480;2022-07-29T05:23:25;100950.75;;;28.68;89.25
40998;BME280;26740;45.944;12.480;2022-07-29T05:25:51;100952.50;;;28.06;92.26
40998;BME280;26740;45.944;12.480;2022-07-29T05:28:16;100948.88;;;28.41;90.37
40998;BME280;26740;45.944;12.480;2022-07-29T05:30:42;100959.28;;;29.66;73.34
40998;BME280;26740;45.944;12.480;2022-07-29T05:33:09;100962.06;;;30.09;73.13
40998;BME280;26740;45.944;12.480;2022-07-29T05:35:35;100968.25;;;30.60;69.75
40998;BME280;26740;45.944;12.480;2022-07-29T05:38:03;100971.00;;;31.14;64.45
40998;BME280;26740;45.944;12.480;2022-07-29T05:40:29;100972.75;;;31.22;65.34
40998;BME280;26740;45.944;12.480;2022-07-29T05:42:55;100982.09;;;31.90;62.56
40998;BME280;26740;45.944;12.480;2022-07-29T05:45:21;100979.28;;;32.46;58.72
40998;BME280;26740;45.944;12.480;2022-07-29T05:47:46;100979.34;;;32.53;57.99
40998;BME280;26740;45.944;12.480;2022-07-29T05:50:12;100993.94;;;32.93;56.11
40998;BME280;26740;45.944;12.480;2022-07-29T05:52:38;100988.03;;;33.48;53.40
40998;BME280;26740;45.944;12.480;2022-07-29T05:55:04;100988.25;;;33.07;53.52
40998;BME280;26740;45.944;12.480;2022-07-29T05:57:31;100988.56;;;34.36;50.30
40998;BME280;26740;45.944;12.480;2022-07-29T05:59:57;100982.38;;;34.24;50.28
40998;BME280;26740;45.944;12.480;2022-07-29T06:02:23;100980.75;;;33.97;50.77
40998;BME280;26740;45.944;12.480;2022-07-29T06:04:49;100994.28;;;33.90;52.72
40998;BME280;26740;45.944;12.480;2022-07-29T06:07:15;100982.75;;;34.65;51.04
40998;BME280;26740;45.944;12.480;2022-07-29T06:09:42;100993.28;;;35.26;51.30
40998;BME280;26740;45.944;12.480;2022-07-29T06:12:08;100992.50;;;35.22;49.04
40998;BME280;26740;45.944;12.480;2022-07-29T06:14:35;100994.16;;;35.23;47.14
40998;BME280;26740;45.944;12.480;2022-07-29T06:17:01;100993.22;;;35.37;47.00
40998;BME280;26740;45.944;12.480;2022-07-29T06:19:27;100992.38;;;36.06;48.04
40998;BME280;26740;45.944;12.480;2022-07-29T06:21:52;101005.00;;;36.31;45.37
40998;BME280;26740;45.944;12.480;2022-07-29T06:24:18;100997.09;;;36.35;44.66
40998;BME280;26740;45.944;12.480;2022-07-29T06:26:44;101001.91;;;36.00;44.53
40998;BME280;26740;45.944;12.480;2022-07-29T06:29:10;100994.41;;;35.46;45.01
40998;BME280;26740;45.944;12.480;2022-07-29T06:31:36;100993.22;;;36.03;45.86
40998;BME280;26740;45.944;12.480;2022-07-29T06:34:03;101005.25;;;36.89;44.30
40998;BME280;26740;45.944;12.480;2022-07-29T06:36:28;100999.66;;;36.67;44.21
40998;BME280;26740;45.944;12.480;2022-07-29T06:38:54;101017.66;;;37.54;41.17
40998;BME280;26740;45.944;12.480;2022-07-29T06:41:20;101012.81;;;37.75;39.78
40998;BME280;26740;45.944;12.480;2022-07-29T06:43:46;101012.69;;;37.55;40.97
40998;BME280;26740;45.944;12.480;2022-07-29T06:46:15;101019.06;;;38.01;39.65
40998;BME280;26740;45.944;12.480;2022-07-29T06:48:44;101014.94;;;38.25;40.91
40998;BME280;26740;45.944;12.480;2022-07-29T06:51:10;101006.91;;;38.33;37.79
40998;BME280;26740;45.944;12.480;2022-07-29T06:53:38;101014.72;;;37.85;39.19
40998;BME280;26740;45.944;12.480;2022-07-29T06:56:05;101009.84;;;37.82;39.61
40998;BME280;26740;45.944;12.480;2022-07-29T06:58:34;101011.53;;;38.03;33.50
40998;BME280;26740;45.944;12.480;2022-07-29T07:01:04;101010.19;;;36.88;36.42
40998;BME280;26740;45.944;12.480;2022-07-29T07:03:30;101014.53;;;37.72;36.39
40998;BME280;26740;45.944;12.480;2022-07-29T07:05:56;101006.25;;;36.30;41.10
40998;BME280;26740;45.944;12.480;2022-07-29T07:08:23;101017.75;;;36.37;43.25
40998;BME280;26740;45.944;12.480;2022-07-29T07:10:50;101012.75;;;36.83;39.40
40998;BME280;26740;45.944;12.480;2022-07-29T07:13:16;101019.78;;;37.16;37.05
40998;BME280;26740;45.944;12.480;2022-07-29T07:15:43;101023.13;;;36.35;41.18
40998;BME280;26740;45.944;12.480;2022-07-29T07:18:09;101016.66;;;36.61;38.89
40998;BME280;26740;45.944;12.480;2022-07-29T07:20:36;101019.78;;;37.19;41.24
40998;BME280;26740;45.944;12.480;2022-07-29T07:23:01;101013.94;;;36.47;37.14
40998;BME280;26740;45.944;12.480;2022-07-29T07:25:27;101017.97;;;35.41;44.36
40998;BME280;26740;45.944;12.480;2022-07-29T07:27:53;101018.44;;;35.99;39.71
40998;BME280;26740;45.944;12.480;2022-07-29T07:30:18;101011.81;;;36.02;36.41
40998;BME280;26740;45.944;12.480;2022-07-29T07:32:44;101014.19;;;36.60;36.78
40998;BME280;26740;45.944;12.480;2022-07-29T07:35:10;101011.44;;;37.25;37.58
40998;BME280;26740;45.944;12.480;2022-07-29T07:37:36;101009.56;;;36.73;38.70
40998;BME280;26740;45.944;12.480;2022-07-29T07:40:03;101006.72;;;36.66;39.08
40998;BME280;26740;45.944;12.480;2022-07-29T07:42:29;101008.66;;;36.35;37.58
40998;BME280;26740;45.944;12.480;2022-07-29T07:44:55;101010.22;;;37.53;38.35
40998;BME280;26740;45.944;12.480;2022-07-29T07:47:20;101021.25;;;37.35;35.50
40998;BME280;26740;45.944;12.480;2022-07-29T07:49:46;101020.88;;;37.33;37.82
40998;BME280;26740;45.944;12.480;2022-07-29T07:52:13;101015.78;;;37.71;37.17
40998;BME280;26740;45.944;12.480;2022-07-29T07:54:39;101013.53;;;37.52;38.75
40998;BME280;26740;45.944;12.480;2022-07-29T07:57:05;101005.63;;;37.25;38.48
40998;BME280;26740;45.944;12.480;2022-07-29T07:59:31;101010.97;;;36.96;37.74
40998;BME280;26740;45.944;12.480;2022-07-29T08:01:56;101005.97;;;36.10;41.03
40998;BME280;26740;45.944;12.480;2022-07-29T08:04:23;101006.06;;;35.32;39.00
40998;BME280;26740;45.944;12.480;2022-07-29T08:06:50;101003.31;;;34.85;40.76
40998;BME280;26740;45.944;12.480;2022-07-29T08:09:16;101004.91;;;35.04;41.86
40998;BME280;26740;45.944;12.480;2022-07-29T08:11:41;101001.34;;;34.25;43.37
40998;BME280;26740;45.944;12.480;2022-07-29T08:14:07;101003.41;;;34.31;39.84
40998;BME280;26740;45.944;12.480;2022-07-29T08:16:33;101003.09;;;35.43;39.53
40998;BME280;26740;45.944;12.480;2022-07-29T08:18:59;100997.34;;;36.06;38.34
40998;BME280;26740;45.944;12.480;2022-07-29T08:21:25;101008.97;;;37.24;37.55
40998;BME280;26740;45.944;12.480;2022-07-29T08:23:51;101014.22;;;37.32;38.25
40998;BME280;26740;45.944;12.480;2022-07-29T08:26:41;101010.38;;;36.74;37.73
40998;BME280;26740;45.944;12.480;2022-07-29T08:29:06;101004.88;;;36.83;35.92
40998;BME280;26740;45.944;12.480;2022-07-29T08:31:32;101011.44;;;37.56;38.00
40998;BME280;26740;45.944;12.480;2022-07-29T08:33:58;101003.50;;;36.95;38.90
40998;BME280;26740;45.944;12.480;2022-07-29T08:36:26;101009.34;;;36.91;35.55
40998;BME280;26740;45.944;12.480;2022-07-29T08:38:52;101005.69;;;38.10;35.75
40998;BME280;26740;45.944;12.480;2022-07-29T08:41:18;101007.19;;;38.42;37.44
40998;BME280;26740;45.944;12.480;2022-07-29T08:43:44;101003.34;;;39.13;35.64
40998;BME280;26740;45.944;12.480;2022-07-29T08:46:10;101014.34;;;39.41;34.40
40998;BME280;26740;45.944;12.480;2022-07-29T08:48:36;101014.78;;;39.96;33.03
40998;BME280;26740;45.944;12.480;2022-07-29T08:51:03;101013.94;;;38.36;34.28
40998;BME280;26740;45.944;12.480;2022-07-29T08:53:31;101012.94;;;39.30;31.71
40998;BME280;26740;45.944;12.480;2022-07-29T08:55:58;101009.06;;;38.76;35.68
40998;BME280;26740;45.944;12.480;2022-07-29T08:58:25;101013.78;;;37.68;35.05
40998;BME280;26740;45.944;12.480;2022-07-29T09:00:56;101017.41;;;38.74;39.78
40998;BME280;26740;45.944;12.480;2022-07-29T09:03:29;101021.91;;;38.75;32.40
40998;BME280;26740;45.944;12.480;2022-07-29T09:05:54;101019.16;;;39.68;35.16
40998;BME280;26740;45.944;12.480;2022-07-29T09:08:20;101016.00;;;39.79;31.08
40998;BME280;26740;45.944;12.480;2022-07-29T09:10:46;101019.44;;;38.30;32.33
40998;BME280;26740;45.944;12.480;2022-07-29T09:13:12;101015.50;;;38.40;34.94
40998;BME280;26740;45.944;12.480;2022-07-29T09:15:38;101011.88;;;39.00;33.11
40998;BME280;26740;45.944;12.480;2022-07-29T09:18:03;101009.41;;;37.53;33.16
40998;BME280;26740;45.944;12.480;2022-07-29T09:20:29;101011.72;;;38.43;32.45
40998;BME280;26740;45.944;12.480;2022-07-29T09:23:14;101010.13;;;38.15;32.89
40998;BME280;26740;45.944;12.480;2022-07-29T09:25:41;101001.31;;;38.69;35.25
40998;BME280;26740;45.944;12.480;2022-07-29T09:28:15;101015.66;;;38.57;33.09
40998;BME280;26740;45.944;12.480;2022-07-29T09:30:57;101010.47;;;38.88;33.45
40998;BME280;26740;45.944;12.480;2022-07-29T09:33:33;101005.06;;;39.50;32.34
40998;BME280;26740;45.944;12.480;2022-07-29T09:36:05;101004.56;;;39.88;31.91
40998;BME280;26740;45.944;12.480;2022-07-29T09:38:32;101005.31;;;40.58;31.01
40998;BME280;26740;45.944;12.480;2022-07-29T09:41:01;101003.16;;;40.29;29.69
40998;BME280;26740;45.944;12.480;2022-07-29T09:43:27;100994.78;;;38.85;31.36
40998;BME280;26740;45.944;12.480;2022-07-29T09:45:54;100990.91;;;39.52;31.69
40998;BME280;26740;45.944;12.480;2022-07-29T09:48:22;100985.72;;;39.60;32.48
40998;BME280;26740;45.944;12.480;2022-07-29T09:50:49;100976.91;;;38.67;33.74
40998;BME280;26740;45.944;12.480;2022-07-29T09:53:33;100986.84;;;39.10;33.42
40998;BME280;26740;45.944;12.480;2022-07-29T09:55:59;100982.28;;;38.88;35.04
40998;BME280;26740;45.944;12.480;2022-07-29T09:58:25;100980.31;;;37.87;34.95
40998;BME280;26740;45.944;12.480;2022-07-29T10:00:52;100977.59;;;38.27;34.32
40998;BME280;26740;45.944;12.480;2022-07-29T10:03:19;100982.22;;;37.74;34.12
40998;BME280;26740;45.944;12.480;2022-07-29T10:05:45;100975.16;;;39.13;35.02
40998;BME280;26740;45.944;12.480;2022-07-29T10:08:11;100975.13;;;39.70;32.14
40998;BME280;26740;45.944;12.480;2022-07-29T10:10:41;100976.78;;;39.87;32.10
40998;BME280;26740;45.944;12.480;2022-07-29T10:13:12;100964.03;;;38.44;33.01
40998;BME280;26740;45.944;12.480;2022-07-29T10:15:40;100972.66;;;39.68;35.59
40998;BME280;26740;45.944;12.480;2022-07-29T10:18:09;100971.94;;;40.30;31.00
40998;BME280;26740;45.944;12.480;2022-07-29T10:20:37;100973.75;;;40.24;34.92
40998;BME280;26740;45.944;12.480;2022-07-29T10:23:03;100971.13;;;39.80;32.51
40998;BME280;26740;45.944;12.480;2022-07-29T10:25:30;100973.81;;;39.54;36.11
40998;BME280;26740;45.944;12.480;2022-07-29T10:27:56;100970.56;;;39.52;35.03
40998;BME280;26740;45.944;12.480;2022-07-29T10:30:23;100961.13;;;40.30;33.14
40998;BME280;26740;45.944;12.480;2022-07-29T10:33:07;100966.91;;;40.63;31.83
40998;BME280;26740;45.944;12.480;2022-07-29T10:44:02;100962.97;;;39.75;33.49
40998;BME280;26740;45.944;12.480;2022-07-29T10:46:35;100969.13;;;39.40;31.44
40998;BME280;26740;45.944;12.480;2022-07-29T10:51:53;100954.81;;;39.50;32.90
40998;BME280;26740;45.944;12.480;2022-07-29T10:54:36;100953.38;;;39.21;32.49
40998;BME280;26740;45.944;12.480;2022-07-29T10:59:43;100951.53;;;39.11;32.58
40998;BME280;26740;45.944;12.480;2022-07-29T11:07:23;100933.38;;;38.67;32.41
40998;BME280;26740;45.944;12.480;2022-07-29T11:15:06;100920.69;;;38.97;34.33
40998;BME280;26740;45.944;12.480;2022-07-29T11:20:42;100916.41;;;38.65;33.36
40998;BME280;26740;45.944;12.480;2022-07-29T11:23:29;100909.84;;;37.40;38.90
40998;BME280;26740;45.944;12.480;2022-07-29T11:26:14;100911.13;;;37.08;37.24
40998;BME280;26740;45.944;12.480;2022-07-29T11:28:54;100915.88;;;37.52;34.34
40998;BME280;26740;45.944;12.480;2022-07-29T11:34:19;100908.59;;;37.68;33.73
40998;BME280;26740;45.944;12.480;2022-07-29T11:45:11;100903.50;;;38.46;34.29
40998;BME280;26740;45.944;12.480;2022-07-29T11:50:13;100896.09;;;38.42;32.76
40998;BME280;26740;45.944;12.480;2022-07-29T11:52:41;100890.16;;;38.29;37.97
40998;BME280;26740;45.944;12.480;2022-07-29T11:55:16;100895.34;;;38.18;31.05
40998;BME280;26740;45.944;12.480;2022-07-29T11:57:56;100895.78;;;38.16;32.57
40998;BME280;26740;45.944;12.480;2022-07-29T12:00:50;100895.84;;;37.65;34.87
40998;BME280;26740;45.944;12.480;2022-07-29T12:03:28;100890.75;;;37.46;38.04
40998;BME280;26740;45.944;12.480;2022-07-29T12:05:54;100892.22;;;36.99;34.14
40998;BME280;26740;45.944;12.480;2022-07-29T12:08:22;100898.41;;;37.02;32.71
40998;BME280;26740;45.944;12.480;2022-07-29T12:10:51;100893.03;;;37.58;37.38
40998;BME280;26740;45.944;12.480;2022-07-29T12:13:21;100887.63;;;37.84;36.45
40998;BME280;26740;45.944;12.480;2022-07-29T12:15:56;100886.25;;;38.59;35.65
40998;BME280;26740;45.944;12.480;2022-07-29T12:18:24;100885.81;;;38.61;35.14
40998;BME280;26740;45.944;12.480;2022-07-29T12:20:57;100881.09;;;38.87;35.22
40998;BME280;26740;45.944;12.480;2022-07-29T12:23:23;100882.19;;;38.57;33.02
40998;BME280;26740;45.944;12.480;2022-07-29T12:25:49;100883.56;;;38.68;33.55
40998;BME280;26740;45.944;12.480;2022-07-29T12:28:15;100884.22;;;38.96;38.59
40998;BME280;26740;45.944;12.480;2022-07-29T12:30:45;100881.81;;;38.31;32.44
40998;BME280;26740;45.944;12.480;2022-07-29T12:33:21;100885.53;;;37.61;33.44
40998;BME280;26740;45.944;12.480;2022-07-29T12:35:53;100877.97;;;38.18;37.07
40998;BME280;26740;45.944;12.480;2022-07-29T12:38:20;100864.97;;;37.79;39.50
40998;BME280;26740;45.944;12.480;2022-07-29T12:40:47;100867.63;;;37.93;38.28
40998;BME280;26740;45.944;12.480;2022-07-29T12:43:18;100865.69;;;38.30;34.57
40998;BME280;26740;45.944;12.480;2022-07-29T12:45:47;100868.09;;;38.35;36.26
40998;BME280;26740;45.944;12.480;2022-07-29T12:48:14;100865.59;;;37.90;29.89
40998;BME280;26740;45.944;12.480;2022-07-29T12:50:57;100861.94;;;37.86;34.54
40998;BME280;26740;45.944;12.480;2022-07-29T12:53:23;100859.81;;;37.39;33.02
40998;BME280;26740;45.944;12.480;2022-07-29T12:55:51;100851.50;;;37.14;33.64
40998;BME280;26740;45.944;12.480;2022-07-29T12:58:35;100859.16;;;37.28;32.30
40998;BME280;26740;45.944;12.480;2022-07-29T13:01:12;100856.47;;;36.83;34.15
40998;BME280;26740;45.944;12.480;2022-07-29T13:03:47;100850.31;;;36.80;31.35
40998;BME280;26740;45.944;12.480;2022-07-29T13:09:11;100849.16;;;37.83;33.61
40998;BME280;26740;45.944;12.480;2022-07-29T13:11:44;100840.41;;;38.10;34.37
40998;BME280;26740;45.944;12.480;2022-07-29T13:14:13;100839.88;;;37.92;32.26
40998;BME280;26740;45.944;12.480;2022-07-29T13:17:07;100835.00;;;38.09;32.74
40998;BME280;26740;45.944;12.480;2022-07-29T13:19:38;100834.38;;;37.98;34.43
40998;BME280;26740;45.944;12.480;2022-07-29T13:22:10;100841.75;;;38.02;34.48
40998;BME280;26740;45.944;12.480;2022-07-29T13:24:56;100835.34;;;37.91;35.09
40998;BME280;26740;45.944;12.480;2022-07-29T13:27:26;100831.16;;;38.16;32.51
40998;BME280;26740;45.944;12.480;2022-07-29T13:29:53;100833.88;;;38.26;32.81
40998;BME280;26740;45.944;12.480;2022-07-29T13:32:20;100829.53;;;38.15;32.65
40998;BME280;26740;45.944;12.480;2022-07-29T13:34:46;100823.09;;;38.03;34.00
40998;BME280;26740;45.944;12.480;2022-07-29T13:37:12;100823.25;;;37.49;31.60
40998;BME280;26740;45.944;12.480;2022-07-29T13:39:37;100825.41;;;37.17;35.18
40998;BME280;26740;45.944;12.480;2022-07-29T13:42:04;100822.22;;;37.35;35.40